createdAt,value
2022-08-04T00:01:41.925Z,101497.16
2022-08-04T00:04:13.202Z,101499.03
2022-08-04T00:06:51.700Z,101495.56
2022-08-04T00:09:26.187Z,101499.34
2022-08-04T00:11:54.866Z,101497.84
2022-08-04T00:14:23.557Z,101489.84
2022-08-04T00:16:53.384Z,101492.66
2022-08-04T00:19:25.382Z,101489.97
2022-08-04T00:21:56.417Z,101484.88
2022-08-04T00:24:26.226Z,101482.59
2022-08-04T00:26:55.464Z,101482.59
2022-08-04T00:29:24.719Z,101491.34
2022-08-04T00:31:54.633Z,101493.19
2022-08-04T00:34:26.811Z,101494.69
2022-08-04T00:36:55.557Z,101487.47
2022-08-04T00:39:26.287Z,101482.69
2022-08-04T00:42:16.488Z,101487.97
2022-08-04T00:44:48.720Z,101486.91
2022-08-04T00:47:25.089Z,101487.31
2022-08-04T00:50:07.284Z,101487.53
2022-08-04T00:52:41.726Z,101490.44
2022-08-04T00:55:42.615Z,101488.88
2022-08-04T00:58:36.829Z,101486.59
2022-08-04T01:01:06.845Z,101489.19
2022-08-04T01:03:51.543Z,101478.25
2022-08-04T01:06:31.385Z,101479.38
2022-08-04T01:09:21.038Z,101431.03
2022-08-04T01:12:02.472Z,101473.19
2022-08-04T01:14:57.737Z,101480.53
2022-08-04T01:17:27.139Z,101474.53
2022-08-04T01:20:07.031Z,101471.94
2022-08-04T01:23:08.250Z,101475.06
2022-08-04T01:26:43.625Z,101479.84
2022-08-04T01:29:14.198Z,101476.53
2022-08-04T01:31:53.362Z,101477.34
2022-08-04T01:34:22.328Z,101459.78
2022-08-04T01:36:58.608Z,101463.75
2022-08-04T01:39:46.752Z,101463.03
2022-08-04T01:42:18.766Z,101458.28
2022-08-04T01:45:02.625Z,101471.78
2022-08-04T01:47:31.932Z,101474.81
2022-08-04T01:50:06.164Z,101467.88
2022-08-04T01:52:35.243Z,101461.09
2022-08-04T01:55:04.786Z,101456.50
2022-08-04T01:57:38.200Z,101465.09
2022-08-04T02:00:10.896Z,101464.25
2022-08-04T02:02:39.649Z,101460.91
2022-08-04T02:05:10.829Z,101454.88
2022-08-04T02:07:51.906Z,101453.88
2022-08-04T02:10:26.041Z,101439.09
2022-08-04T02:12:57.884Z,101452.72
2022-08-04T02:15:33.102Z,101456.91
2022-08-04T02:18:05.695Z,101455.91
2022-08-04T02:20:39.803Z,101454.22
2022-08-04T02:23:08.819Z,101460.69
2022-08-04T02:25:40.650Z,101458.94
2022-08-04T02:28:19.825Z,101455.41
2022-08-04T02:30:54.464Z,101450.84
2022-08-04T02:33:26.389Z,101454.41
2022-08-04T02:35:57.460Z,101456.78
2022-08-04T02:38:38.654Z,101440.19
2022-08-04T02:41:06.734Z,101453.44
2022-08-04T02:43:51.569Z,101449.53
2022-08-04T02:46:22.359Z,101459.13
2022-08-04T02:48:50.919Z,101452.22
2022-08-04T02:51:25.111Z,101455.22
2022-08-04T02:53:55.043Z,101451.28
2022-08-04T02:56:23.373Z,101457.44
2022-08-04T02:58:53.745Z,101457.56
2022-08-04T03:01:24.952Z,101456.38
2022-08-04T03:04:00.253Z,101455.28
2022-08-04T03:06:57.517Z,101443.47
2022-08-04T03:10:25.070Z,101446.19
2022-08-04T03:13:18.652Z,101439.06
2022-08-04T03:15:58.392Z,101449.41
2022-08-04T03:19:11.196Z,101456.88
2022-08-04T03:22:02.018Z,101447.56
2022-08-04T03:25:14.497Z,101455.00
2022-08-04T03:28:02.653Z,101463.56
2022-08-04T03:30:32.442Z,101460.78
2022-08-04T03:33:33.809Z,101457.66
2022-08-04T03:36:50.113Z,101458.00
2022-08-04T03:39:45.803Z,101449.47
2022-08-04T03:42:49.102Z,101461.91
2022-08-04T03:45:35.475Z,101468.16
2022-08-04T03:48:38.798Z,101467.63
2022-08-04T03:51:36.306Z,101470.69
2022-08-04T03:54:23.278Z,101473.97
2022-08-04T03:57:14.000Z,101462.50
2022-08-04T03:59:57.896Z,101470.25
2022-08-04T04:02:52.832Z,101478.47
2022-08-04T04:06:04.556Z,101488.53
2022-08-04T04:09:16.233Z,101485.94
2022-08-04T04:12:05.573Z,101487.44
2022-08-04T04:14:58.973Z,101494.25
2022-08-04T04:17:51.804Z,101495.63
2022-08-04T04:20:39.153Z,101495.06
2022-08-04T04:23:16.176Z,101493.69
2022-08-04T04:25:51.025Z,101491.63
2022-08-04T04:28:44.993Z,101494.41
2022-08-04T04:31:28.477Z,101495.03
2022-08-04T04:34:00.143Z,101499.19
2022-08-04T04:36:33.670Z,101505.75
2022-08-04T04:39:09.235Z,101502.72
2022-08-04T04:42:03.368Z,101498.56
2022-08-04T04:45:03.840Z,101505.25
2022-08-04T04:48:07.462Z,101519.03
2022-08-04T04:50:36.485Z,101520.09
2022-08-04T04:53:09.485Z,101501.19
2022-08-04T04:55:46.411Z,101524.72
2022-08-04T04:58:18.730Z,101530.28
2022-08-04T05:00:57.243Z,101538.19
2022-08-04T05:04:12.962Z,101531.16
2022-08-04T05:06:54.561Z,101539.44
2022-08-04T05:09:32.048Z,101534.16
2022-08-04T05:14:31.966Z,101541.38
2022-08-04T05:15:09.224Z,101552.25
2022-08-04T05:17:38.730Z,101556.66
2022-08-04T05:20:08.929Z,101552.06
2022-08-04T05:22:40.569Z,101550.97
2022-08-04T05:25:14.608Z,101542.25
2022-08-04T05:27:45.076Z,101559.50
2022-08-04T05:30:13.731Z,101569.16
2022-08-04T05:32:46.878Z,101570.69
2022-08-04T05:35:49.834Z,101564.00
2022-08-04T05:38:19.871Z,101577.19
2022-08-04T05:40:47.838Z,101580.31
2022-08-04T05:43:15.738Z,101588.81
2022-08-04T05:45:43.689Z,101591.09
2022-08-04T05:48:11.819Z,101601.28
2022-08-04T05:50:39.844Z,101602.47
2022-08-04T05:53:07.874Z,101601.09
2022-08-04T05:55:48.718Z,101608.69
2022-08-04T05:58:25.133Z,101608.91
2022-08-04T06:00:53.214Z,101609.28
2022-08-04T06:03:21.384Z,101617.50
2022-08-04T06:05:49.346Z,101622.50
2022-08-04T06:08:17.288Z,101640.88
2022-08-04T06:10:47.058Z,101633.97
2022-08-04T06:13:47.979Z,101638.06
2022-08-04T06:16:05.031Z,101636.13
2022-08-04T06:20:02.462Z,101643.13
2022-08-04T06:21:23.180Z,101645.97
2022-08-04T06:23:53.813Z,101645.53
2022-08-04T06:26:32.630Z,101662.91
2022-08-04T06:29:00.604Z,101657.59
2022-08-04T06:32:29.456Z,101647.22
2022-08-04T06:34:34.269Z,101658.78
2022-08-04T06:37:02.196Z,101670.56
2022-08-04T06:39:30.197Z,101673.16
2022-08-04T06:42:21.805Z,101677.16
2022-08-04T06:44:47.970Z,101677.41
2022-08-04T06:47:19.402Z,101677.72
2022-08-04T06:51:23.552Z,101678.47
2022-08-04T06:52:35.707Z,101685.06
2022-08-04T06:55:03.685Z,101688.75
2022-08-04T06:57:33.247Z,101687.56
2022-08-04T07:00:02.669Z,101699.19
2022-08-04T07:02:32.840Z,101699.63
2022-08-04T07:05:04.544Z,101702.44
2022-08-04T07:07:37.258Z,101694.88
2022-08-04T07:10:23.202Z,101705.34
2022-08-04T07:12:53.063Z,101709.31
2022-08-04T07:15:22.166Z,101707.91
2022-08-04T07:17:52.185Z,101710.63
2022-08-04T07:20:35.787Z,101707.59
2022-08-04T07:23:04.875Z,101717.09
2022-08-04T07:25:58.585Z,101719.41
2022-08-04T07:28:22.558Z,101718.84
2022-08-04T07:30:50.709Z,101726.84
2022-08-04T07:33:18.928Z,101727.06
2022-08-04T07:36:04.907Z,101734.50
2022-08-04T07:38:37.955Z,101727.06
2022-08-04T07:44:06.955Z,101739.19
2022-08-04T07:46:34.975Z,101741.25
2022-08-04T07:49:02.986Z,101742.56
2022-08-04T07:51:32.138Z,101730.91
2022-08-04T07:54:00.599Z,101738.47
2022-08-04T07:56:28.609Z,101741.41
2022-08-04T07:58:56.638Z,101746.69
2022-08-04T08:01:25.989Z,101749.50
2022-08-04T08:03:54.674Z,101762.03
2022-08-04T08:06:32.729Z,101760.38
2022-08-04T08:09:12.709Z,101759.59
2022-08-04T08:12:35.763Z,101769.84
2022-08-04T08:14:30.325Z,101771.34
2022-08-04T08:17:00.056Z,101772.88
2022-08-04T08:19:28.037Z,101772.47
2022-08-04T08:21:59.111Z,101777.13
2022-08-04T08:24:28.261Z,101780.25
2022-08-04T08:26:56.900Z,101776.69
2022-08-04T08:29:25.701Z,101781.91
2022-08-04T08:31:56.343Z,101789.13
2022-08-04T08:34:28.869Z,101790.84
2022-08-04T08:37:00.340Z,101786.19
2022-08-04T08:39:30.729Z,101785.22
2022-08-04T08:42:25.165Z,101789.31
2022-08-04T08:45:37.372Z,101790.50
2022-08-04T08:48:30.097Z,101791.81
2022-08-04T08:51:11.451Z,101797.19
2022-08-04T08:53:50.826Z,101768.16
2022-08-04T08:56:31.161Z,101805.72
2022-08-04T08:59:27.200Z,101800.31
2022-08-04T09:02:04.399Z,101804.19
2022-08-04T09:04:46.113Z,101804.75
2022-08-04T09:07:29.438Z,101805.94
2022-08-04T09:10:06.747Z,101804.09
2022-08-04T09:12:37.215Z,101805.94
2022-08-04T09:15:06.924Z,101802.34
2022-08-04T09:17:38.500Z,101810.16
2022-08-04T09:20:08.923Z,101805.19
2022-08-04T09:22:46.250Z,101810.59
2022-08-04T09:25:19.412Z,101809.28
2022-08-04T09:27:50.803Z,101811.44
2022-08-04T09:30:20.966Z,101805.06
2022-08-04T09:32:56.895Z,101806.69
2022-08-04T09:35:27.398Z,101817.41
2022-08-04T09:38:01.735Z,101815.88
2022-08-04T09:40:52.706Z,101821.63
2022-08-04T09:44:40.782Z,101815.97
2022-08-04T09:46:36.187Z,101827.34
2022-08-04T09:49:04.929Z,101818.69
2022-08-04T09:51:58.360Z,101830.78
2022-08-04T09:54:34.075Z,101813.16
2022-08-04T09:57:08.353Z,101823.75
2022-08-04T09:59:40.545Z,101827.13
2022-08-04T10:02:08.996Z,101834.03
2022-08-04T10:04:37.155Z,101831.97
2022-08-04T10:07:41.292Z,101825.94
2022-08-04T10:10:16.622Z,101822.34
2022-08-04T10:12:53.709Z,101832.31
2022-08-04T10:15:22.500Z,101844.41
2022-08-04T10:18:03.753Z,101850.59
2022-08-04T10:21:15.279Z,101848.09
2022-08-04T10:24:14.026Z,101853.69
2022-08-04T10:26:48.233Z,101852.38
2022-08-04T10:29:17.789Z,101856.94
2022-08-04T10:31:47.817Z,101855.34
2022-08-04T10:34:20.088Z,101856.00
2022-08-04T10:36:53.321Z,101852.84
2022-08-04T10:39:42.992Z,101866.31
2022-08-04T10:42:20.227Z,101860.69
2022-08-04T10:44:57.836Z,101868.06
2022-08-04T10:47:28.210Z,101877.56
2022-08-04T10:49:57.637Z,101881.22
2022-08-04T10:52:33.855Z,101867.78
2022-08-04T10:55:06.961Z,101878.25
2022-08-04T10:57:38.205Z,101876.38
2022-08-04T11:00:07.795Z,101880.63
2022-08-04T11:02:39.209Z,101884.25
2022-08-04T11:05:13.938Z,101892.81
2022-08-04T11:07:42.660Z,101888.13
2022-08-04T11:10:10.653Z,101893.44
2022-08-04T11:12:40.074Z,101889.75
2022-08-04T11:15:10.468Z,101895.94
2022-08-04T11:17:40.029Z,101898.88
2022-08-04T11:20:34.151Z,101898.34
2022-08-04T11:23:05.246Z,101889.88
2022-08-04T11:25:36.538Z,101896.84
2022-08-04T11:28:09.445Z,101898.06
2022-08-04T11:30:39.089Z,101897.38
2022-08-04T11:33:10.636Z,101883.06
2022-08-04T11:35:42.758Z,101910.09
2022-08-04T11:38:13.071Z,101907.25
2022-08-04T11:40:48.392Z,101903.41
2022-08-04T11:44:01.389Z,101903.50
2022-08-04T11:46:26.322Z,101905.16
2022-08-04T11:48:57.594Z,101899.44
2022-08-04T11:51:25.549Z,101904.81
2022-08-04T11:53:53.471Z,101905.78
2022-08-04T11:56:36.056Z,101900.75
2022-08-04T11:59:08.651Z,101912.88
2022-08-04T12:01:41.016Z,101897.84
2022-08-04T12:04:13.624Z,101909.91
2022-08-04T12:06:56.839Z,101901.16
2022-08-04T12:09:37.490Z,101904.78
2022-08-04T12:12:10.513Z,101911.63
2022-08-04T12:14:45.011Z,101921.38
2022-08-04T12:17:13.039Z,101907.53
2022-08-04T12:19:58.614Z,101913.91
2022-08-04T12:22:36.125Z,101914.34
2022-08-04T12:25:07.947Z,101910.44
2022-08-04T12:27:38.799Z,101918.94
2022-08-04T12:31:01.666Z,101922.00
2022-08-04T12:33:01.425Z,101922.44
2022-08-04T12:35:32.184Z,101902.81
2022-08-04T12:38:02.947Z,101923.69
2022-08-04T12:40:40.518Z,101924.09
2022-08-04T12:43:11.699Z,101930.28
2022-08-04T12:45:44.790Z,101924.31
2022-08-04T12:48:21.094Z,101935.03
2022-08-04T12:50:49.851Z,101933.31
2022-08-04T12:53:31.590Z,101931.38
2022-08-04T12:56:01.863Z,101925.63
2022-08-04T12:58:42.840Z,101919.25
2022-08-04T13:02:08.058Z,101916.81
2022-08-04T13:04:04.487Z,101921.03
2022-08-04T13:06:33.733Z,101915.50
2022-08-04T13:09:04.897Z,101915.13
2022-08-04T13:11:36.442Z,101917.41
2022-08-04T13:14:24.784Z,101911.16
2022-08-04T13:17:00.159Z,101903.47
2022-08-04T13:19:28.864Z,101904.41
2022-08-04T13:22:02.645Z,101907.06
2022-08-04T13:24:32.307Z,101906.19
2022-08-04T13:27:04.209Z,101896.75
2022-08-04T13:29:57.961Z,101899.00
2022-08-04T13:32:25.971Z,101896.94
2022-08-04T13:34:55.416Z,101902.19
2022-08-04T13:37:26.779Z,101922.00
2022-08-04T13:39:56.276Z,101902.50
2022-08-04T13:42:25.787Z,101903.75
2022-08-04T13:44:55.505Z,101913.66
2022-08-04T13:47:27.947Z,101889.19
2022-08-04T13:50:12.226Z,101907.31
2022-08-04T13:52:41.087Z,101918.75
2022-08-04T13:55:09.661Z,101923.75
2022-08-04T13:57:44.174Z,101914.56
2022-08-04T14:00:12.964Z,101911.81
2022-08-04T14:02:44.453Z,101921.13
2022-08-04T14:05:18.165Z,101913.59
2022-08-04T14:07:47.703Z,101921.22
2022-08-04T14:10:15.945Z,101921.03
2022-08-04T14:12:47.453Z,101915.28
2022-08-04T14:16:02.503Z,101913.78
2022-08-04T14:18:22.217Z,101902.91
2022-08-04T14:21:00.535Z,101913.78
2022-08-04T14:23:30.165Z,101908.28
2022-08-04T14:26:01.396Z,101909.16
2022-08-04T14:29:00.022Z,101925.78
2022-08-04T14:31:18.754Z,101913.41
2022-08-04T14:34:01.142Z,101915.16
2022-08-04T14:37:15.474Z,101910.63
2022-08-04T14:39:41.173Z,101908.91
2022-08-04T14:42:09.192Z,101915.78
2022-08-04T14:44:55.450Z,101916.63
2022-08-04T14:47:52.717Z,101916.00
2022-08-04T14:50:24.302Z,101914.31
2022-08-04T14:52:52.265Z,101919.00
2022-08-04T14:55:21.340Z,101920.06
2022-08-04T14:58:36.762Z,101914.75
2022-08-04T15:00:37.648Z,101909.34
2022-08-04T15:03:06.916Z,101916.91
2022-08-04T15:05:55.208Z,101923.84
2022-08-04T15:08:24.169Z,101919.06
2022-08-04T15:10:59.852Z,101921.97
2022-08-04T15:13:27.935Z,101885.94
2022-08-04T15:16:06.078Z,101925.06
2022-08-04T15:18:35.811Z,101925.03
2022-08-04T15:21:05.347Z,101909.94
2022-08-04T15:23:39.399Z,101911.25
2022-08-04T15:26:09.588Z,101913.13
2022-08-04T15:28:38.079Z,101916.44
2022-08-04T15:31:10.680Z,101902.75
2022-08-04T15:33:55.481Z,101925.38
2022-08-04T15:36:29.753Z,101924.31
2022-08-04T15:39:01.544Z,101925.16
2022-08-04T15:41:34.875Z,101929.09
2022-08-04T15:44:19.338Z,101924.47
2022-08-04T15:47:11.292Z,101921.38
2022-08-04T15:49:40.885Z,101931.56
2022-08-04T15:52:22.935Z,101924.16
2022-08-04T15:54:52.842Z,101923.94
2022-08-04T15:57:40.303Z,101914.59
2022-08-04T16:00:14.677Z,101918.09
2022-08-04T16:02:44.333Z,101926.06
2022-08-04T16:05:33.540Z,101929.00
2022-08-04T16:08:04.734Z,101918.28
2022-08-04T16:10:39.611Z,101922.69
2022-08-04T16:13:08.326Z,101916.31
2022-08-04T16:15:44.012Z,101922.47
2022-08-04T16:18:26.389Z,101932.63
2022-08-04T16:20:56.921Z,101928.53
2022-08-04T16:23:59.219Z,101920.56
2022-08-04T16:26:54.665Z,101922.81
2022-08-04T16:29:39.941Z,101930.09
2022-08-04T16:32:10.392Z,101925.13
2022-08-04T16:34:54.601Z,101928.44
2022-08-04T16:37:24.862Z,101932.06
2022-08-04T16:40:19.326Z,101934.09
2022-08-04T16:42:49.436Z,101935.19
2022-08-04T16:45:18.051Z,101931.31
2022-08-04T16:48:07.923Z,101929.84
2022-08-04T16:50:36.435Z,101931.94
2022-08-04T16:53:04.403Z,101928.44
2022-08-04T16:55:34.097Z,101929.91
2022-08-04T16:58:02.081Z,101930.13
2022-08-04T17:00:31.351Z,101931.00
2022-08-04T17:02:59.411Z,101928.56
2022-08-04T17:05:37.958Z,101928.44
2022-08-04T17:08:28.661Z,101938.72
2022-08-04T17:10:56.336Z,101919.06
2022-08-04T17:14:03.028Z,101937.78
2022-08-04T17:16:18.231Z,101925.41
2022-08-04T17:18:47.563Z,101922.00
2022-08-04T17:21:16.453Z,101928.38
2022-08-04T17:24:14.642Z,101934.50
2022-08-04T17:26:40.198Z,101939.84
2022-08-04T17:29:09.660Z,101932.94
2022-08-04T17:31:40.597Z,101931.75
2022-08-04T17:34:15.742Z,101935.63
2022-08-04T17:36:44.559Z,101927.94
2022-08-04T17:39:16.949Z,101934.38
2022-08-04T17:41:49.014Z,101930.97
2022-08-04T17:44:17.985Z,101935.69
2022-08-04T17:46:48.525Z,101938.66
2022-08-04T17:49:25.666Z,101940.50
2022-08-04T17:52:05.993Z,101947.81
2022-08-04T17:54:40.364Z,101944.38
2022-08-04T17:57:19.525Z,101940.69
2022-08-04T17:59:55.760Z,101944.38
2022-08-04T18:02:32.155Z,101936.34
2022-08-04T18:08:39.536Z,101949.31
2022-08-04T18:10:51.996Z,101945.13
2022-08-04T18:13:25.626Z,101955.41
2022-08-04T18:16:02.870Z,101941.81
2022-08-04T18:18:31.069Z,101941.81
2022-08-04T18:21:03.216Z,101957.94
2022-08-04T18:26:23.803Z,101956.53
2022-08-04T18:28:53.556Z,101958.47
2022-08-04T18:31:21.505Z,101959.41
2022-08-04T18:33:57.048Z,101964.22
2022-08-04T18:36:32.521Z,101970.00
2022-08-04T18:39:13.835Z,101969.88
2022-08-04T18:42:01.226Z,101946.88
2022-08-04T18:44:49.355Z,101965.53
2022-08-04T18:47:23.345Z,101978.22
2022-08-04T18:51:00.870Z,101972.34
2022-08-04T18:52:42.125Z,101986.94
2022-08-04T18:55:55.905Z,101984.16
2022-08-04T18:58:07.086Z,101980.66
2022-08-04T19:00:45.249Z,101992.50
2022-08-04T19:03:16.420Z,101994.81
2022-08-04T19:05:50.038Z,101989.56
2022-08-04T19:08:34.399Z,101991.16
2022-08-04T19:11:38.592Z,101992.56
2022-08-04T19:13:58.173Z,101989.00
2022-08-04T19:16:28.711Z,101994.84
2022-08-04T19:18:56.904Z,102000.91
2022-08-04T19:22:00.726Z,102003.41
2022-08-04T19:27:07.353Z,101998.88
2022-08-04T19:29:37.450Z,101990.91
2022-08-04T19:32:13.917Z,101999.97
2022-08-04T19:34:46.103Z,102012.94
2022-08-04T19:37:58.230Z,102001.59
2022-08-04T19:40:04.957Z,102016.69
2022-08-04T19:42:32.977Z,102013.78
2022-08-04T19:45:00.893Z,102009.00
2022-08-04T19:48:12.320Z,102005.34
2022-08-04T19:50:19.711Z,102019.94
2022-08-04T19:52:51.722Z,101984.03
2022-08-04T19:55:22.452Z,102027.75
2022-08-04T19:57:51.192Z,102019.06
2022-08-04T20:00:33.865Z,102027.72
2022-08-04T20:03:11.240Z,102030.25
2022-08-04T20:05:54.562Z,102038.81
2022-08-04T20:08:25.016Z,102033.91
2022-08-04T20:10:54.943Z,102044.22
2022-08-04T20:13:25.446Z,102042.59
2022-08-04T20:16:28.532Z,102049.38
2022-08-04T20:19:00.918Z,102057.81
2022-08-04T20:21:54.213Z,102044.25
2022-08-04T20:24:38.753Z,102047.13
2022-08-04T20:27:08.793Z,102056.78
2022-08-04T20:29:46.259Z,102047.78
2022-08-04T20:32:19.332Z,102045.50
2022-08-04T20:34:49.182Z,102052.63
2022-08-04T20:37:17.255Z,102021.28
2022-08-04T20:39:45.461Z,102054.34
2022-08-04T20:42:27.197Z,102064.19
2022-08-04T20:44:56.015Z,102059.03
2022-08-04T20:47:26.107Z,102069.06
2022-08-04T20:49:56.337Z,102075.50
2022-08-04T20:52:25.417Z,102077.25
2022-08-04T20:54:56.036Z,102079.25
2022-08-04T20:57:48.681Z,102076.94
2022-08-04T21:00:13.605Z,102074.69
2022-08-04T21:02:41.588Z,102068.81
2022-08-04T21:05:13.909Z,102074.03
2022-08-04T21:07:48.685Z,102067.88
2022-08-04T21:10:17.146Z,102084.22
2022-08-04T21:12:50.043Z,102084.44
2022-08-04T21:15:25.031Z,102086.16
2022-08-04T21:20:43.303Z,102094.06
2022-08-04T21:23:11.827Z,102093.38
2022-08-04T21:25:43.588Z,102088.16
2022-08-04T21:28:11.913Z,102094.72
2022-08-04T21:30:53.952Z,102093.06
2022-08-04T21:33:22.906Z,102094.13
2022-08-04T21:35:54.096Z,102101.16
2022-08-04T21:41:10.637Z,102099.91
2022-08-04T21:43:43.170Z,102102.53
2022-08-04T21:46:11.759Z,102106.84
2022-08-04T21:48:42.545Z,102108.69
2022-08-04T21:51:56.775Z,102123.84
2022-08-04T21:54:04.331Z,102121.59
2022-08-04T21:56:33.609Z,102119.84
2022-08-04T21:59:04.532Z,102122.63
2022-08-04T22:01:50.137Z,102122.72
2022-08-04T22:04:19.829Z,102125.69
2022-08-04T22:06:52.334Z,102123.94
2022-08-04T22:20:31.960Z,102128.41
2022-08-04T22:23:15.711Z,102132.06
2022-08-04T22:25:55.746Z,102141.13
2022-08-04T22:28:25.429Z,102086.50
2022-08-04T22:30:55.799Z,102135.03
2022-08-04T22:33:23.737Z,102146.69
2022-08-04T22:36:11.854Z,102144.09
2022-08-04T22:38:48.812Z,102148.50
2022-08-04T22:41:21.212Z,102146.78
2022-08-04T22:43:54.791Z,102143.38
2022-08-04T22:46:24.230Z,102146.16
2022-08-04T22:48:52.458Z,102133.03
2022-08-04T22:51:20.326Z,102140.06
2022-08-04T22:53:51.755Z,102141.66
2022-08-04T22:56:37.789Z,102136.06
2022-08-04T22:59:10.910Z,102097.03
2022-08-04T23:02:00.171Z,102143.81
2022-08-04T23:04:27.596Z,102137.44
2022-08-04T23:06:55.453Z,102141.03
2022-08-04T23:09:48.998Z,102148.06
2022-08-04T23:12:24.504Z,102148.06
2022-08-04T23:14:53.645Z,102143.56
2022-08-04T23:17:22.999Z,102148.06
2022-08-04T23:19:57.848Z,102139.97
2022-08-04T23:22:37.508Z,102132.84
2022-08-04T23:25:15.759Z,102139.00
2022-08-04T23:27:48.168Z,102145.28
2022-08-04T23:30:21.707Z,102140.75
2022-08-04T23:32:52.227Z,102137.13
2022-08-04T23:35:21.993Z,102142.31
2022-08-04T23:37:57.791Z,102134.31
2022-08-04T23:40:34.324Z,102148.41
2022-08-04T23:43:12.368Z,102157.28
2022-08-04T23:46:04.373Z,102158.13
2022-08-04T23:48:34.178Z,102166.41
2022-08-04T23:51:04.431Z,102164.59
2022-08-04T23:54:01.893Z,102154.75
2022-08-04T23:56:32.131Z,102160.03
2022-08-04T23:59:03.387Z,102159.09
